sensor_id;sensor_type;location;lat;lon;timestamp;P1;durP1;ratioP1;P2;durP2;ratioP2
40729;SDS011;26418;50.070;8.436;2022-12-07T00:00:26;21.15;;;11.43;;
40729;SDS011;26418;50.070;8.436;2022-12-07T00:02:51;22.52;;;11.95;;
40729;SDS011;26418;50.070;8.436;2022-12-07T00:05:17;23.00;;;12.43;;
40729;SDS011;26418;50.070;8.436;2022-12-07T00:07:42;23.95;;;11.63;;
40729;SDS011;26418;50.070;8.436;2022-12-07T00:10:08;23.25;;;12.23;;
40729;SDS011;26418;50.070;8.436;2022-12-07T00:12:33;23.20;;;12.15;;
40729;SDS011;26418;50.070;8.436;2022-12-07T00:14:59;20.92;;;12.50;;
40729;SDS011;26418;50.070;8.436;2022-12-07T00:17:24;21.33;;;11.45;;
40729;SDS011;26418;50.070;8.436;2022-12-07T00:19:49;20.50;;;11.55;;
40729;SDS011;26418;50.070;8.436;2022-12-07T00:22:15;24.55;;;11.57;;
40729;SDS011;26418;50.070;8.436;2022-12-07T00:24:40;21.02;;;11.02;;
40729;SDS011;26418;50.070;8.436;2022-12-07T00:27:06;26.73;;;11.68;;
40729;SDS011;26418;50.070;8.436;2022-12-07T00:29:31;20.95;;;11.82;;
40729;SDS011;26418;50.070;8.436;2022-12-07T00:31:56;19.27;;;11.02;;
40729;SDS011;26418;50.070;8.436;2022-12-07T00:34:22;18.25;;;11.43;;
40729;SDS011;26418;50.070;8.436;2022-12-07T00:36:47;23.70;;;12.40;;
40729;SDS011;26418;50.070;8.436;2022-12-07T00:39:13;20.85;;;11.98;;
40729;SDS011;26418;50.070;8.436;2022-12-07T00:41:39;22.40;;;11.60;;
40729;SDS011;26418;50.070;8.436;2022-12-07T00:44:05;25.63;;;12.98;;
40729;SDS011;26418;50.070;8.436;2022-12-07T00:46:30;21.23;;;11.90;;
40729;SDS011;26418;50.070;8.436;2022-12-07T00:48:56;22.52;;;11.90;;
40729;SDS011;26418;50.070;8.436;2022-12-07T00:51:22;21.92;;;11.50;;
40729;SDS011;26418;50.070;8.436;2022-12-07T00:53:49;26.15;;;11.35;;
40729;SDS011;26418;50.070;8.436;2022-12-07T00:56:16;20.05;;;11.63;;
40729;SDS011;26418;50.070;8.436;2022-12-07T00:58:44;20.73;;;11.07;;
40729;SDS011;26418;50.070;8.436;2022-12-07T01:01:15;26.17;;;11.80;;
40729;SDS011;26418;50.070;8.436;2022-12-07T01:03:40;22.10;;;11.85;;
40729;SDS011;26418;50.070;8.436;2022-12-07T01:06:06;21.73;;;11.25;;
40729;SDS011;26418;50.070;8.436;2022-12-07T01:08:32;20.67;;;10.57;;
40729;SDS011;26418;50.070;8.436;2022-12-07T01:10:58;20.70;;;11.70;;
40729;SDS011;26418;50.070;8.436;2022-12-07T01:13:35;23.70;;;11.30;;
40729;SDS011;26418;50.070;8.436;2022-12-07T01:16:02;23.45;;;9.98;;
40729;SDS011;26418;50.070;8.436;2022-12-07T01:18:30;18.98;;;10.30;;
40729;SDS011;26418;50.070;8.436;2022-12-07T01:23:29;18.00;;;9.30;;
40729;SDS011;26418;50.070;8.436;2022-12-07T01:25:59;21.58;;;10.27;;
40729;SDS011;26418;50.070;8.436;2022-12-07T01:28:29;18.08;;;9.68;;
40729;SDS011;26418;50.070;8.436;2022-12-07T01:31:05;18.48;;;10.10;;
40729;SDS011;26418;50.070;8.436;2022-12-07T01:33:40;19.33;;;8.75;;
40729;SDS011;26418;50.070;8.436;2022-12-07T01:36:20;21.02;;;10.18;;
40729;SDS011;26418;50.070;8.436;2022-12-07T01:38:49;17.70;;;9.65;;
40729;SDS011;26418;50.070;8.436;2022-12-07T01:41:18;20.60;;;10.90;;
40729;SDS011;26418;50.070;8.436;2022-12-07T01:46:38;19.48;;;9.48;;
40729;SDS011;26418;50.070;8.436;2022-12-07T01:49:05;17.15;;;9.65;;
40729;SDS011;26418;50.070;8.436;2022-12-07T01:51:33;18.77;;;9.93;;
40729;SDS011;26418;50.070;8.436;2022-12-07T01:53:59;19.80;;;9.60;;
40729;SDS011;26418;50.070;8.436;2022-12-07T01:56:26;17.02;;;9.10;;
40729;SDS011;26418;50.070;8.436;2022-12-07T01:58:54;17.10;;;9.98;;
40729;SDS011;26418;50.070;8.436;2022-12-07T02:01:21;17.38;;;9.02;;
40729;SDS011;26418;50.070;8.436;2022-12-07T02:03:47;22.55;;;10.07;;
40729;SDS011;26418;50.070;8.436;2022-12-07T02:06:14;20.40;;;10.13;;
40729;SDS011;26418;50.070;8.436;2022-12-07T02:08:44;20.30;;;9.38;;
40729;SDS011;26418;50.070;8.436;2022-12-07T02:11:11;21.45;;;8.63;;
40729;SDS011;26418;50.070;8.436;2022-12-07T02:13:37;19.05;;;9.95;;
40729;SDS011;26418;50.070;8.436;2022-12-07T02:23:53;19.73;;;10.63;;
40729;SDS011;26418;50.070;8.436;2022-12-07T02:26:43;16.52;;;8.32;;
40729;SDS011;26418;50.070;8.436;2022-12-07T02:29:16;19.80;;;9.85;;
40729;SDS011;26418;50.070;8.436;2022-12-07T02:31:48;18.10;;;9.65;;
40729;SDS011;26418;50.070;8.436;2022-12-07T02:34:34;19.58;;;9.77;;
40729;SDS011;26418;50.070;8.436;2022-12-07T02:40:19;21.75;;;10.57;;
40729;SDS011;26418;50.070;8.436;2022-12-07T02:43:12;17.73;;;9.10;;
40729;SDS011;26418;50.070;8.436;2022-12-07T02:45:43;20.40;;;10.05;;
40729;SDS011;26418;50.070;8.436;2022-12-07T02:48:11;18.42;;;9.73;;
40729;SDS011;26418;50.070;8.436;2022-12-07T02:50:43;19.90;;;10.02;;
40729;SDS011;26418;50.070;8.436;2022-12-07T02:53:41;19.15;;;9.85;;
40729;SDS011;26418;50.070;8.436;2022-12-07T02:56:15;17.42;;;9.07;;
40729;SDS011;26418;50.070;8.436;2022-12-07T03:07:06;17.92;;;9.13;;
40729;SDS011;26418;50.070;8.436;2022-12-07T03:09:37;19.27;;;8.77;;
40729;SDS011;26418;50.070;8.436;2022-12-07T03:12:20;14.63;;;8.57;;
40729;SDS011;26418;50.070;8.436;2022-12-07T03:14:59;19.08;;;8.75;;
40729;SDS011;26418;50.070;8.436;2022-12-07T03:17:32;16.90;;;8.35;;
40729;SDS011;26418;50.070;8.436;2022-12-07T03:20:03;17.15;;;8.60;;
40729;SDS011;26418;50.070;8.436;2022-12-07T03:22:31;17.42;;;8.68;;
40729;SDS011;26418;50.070;8.436;2022-12-07T03:25:03;18.30;;;9.68;;
40729;SDS011;26418;50.070;8.436;2022-12-07T03:27:32;14.38;;;8.02;;
40729;SDS011;26418;50.070;8.436;2022-12-07T03:30:08;12.88;;;7.63;;
40729;SDS011;26418;50.070;8.436;2022-12-07T03:32:52;15.00;;;8.20;;
40729;SDS011;26418;50.070;8.436;2022-12-07T03:35:26;13.93;;;8.05;;
40729;SDS011;26418;50.070;8.436;2022-12-07T03:41:00;12.70;;;7.10;;
40729;SDS011;26418;50.070;8.436;2022-12-07T03:43:31;18.80;;;9.20;;
40729;SDS011;26418;50.070;8.436;2022-12-07T03:48:54;22.88;;;8.50;;
40729;SDS011;26418;50.070;8.436;2022-12-07T03:51:36;18.15;;;9.35;;
40729;SDS011;26418;50.070;8.436;2022-12-07T03:54:24;17.10;;;8.98;;
40729;SDS011;26418;50.070;8.436;2022-12-07T03:56:56;16.80;;;8.63;;
40729;SDS011;26418;50.070;8.436;2022-12-07T03:59:23;16.83;;;8.75;;
40729;SDS011;26418;50.070;8.436;2022-12-07T04:01:54;23.00;;;9.23;;
40729;SDS011;26418;50.070;8.436;2022-12-07T04:04:22;20.05;;;9.38;;
40729;SDS011;26418;50.070;8.436;2022-12-07T04:06:49;21.25;;;9.43;;
40729;SDS011;26418;50.070;8.436;2022-12-07T04:09:15;19.10;;;8.93;;
40729;SDS011;26418;50.070;8.436;2022-12-07T04:11:41;17.55;;;8.77;;
40729;SDS011;26418;50.070;8.436;2022-12-07T04:14:07;21.45;;;9.48;;
40729;SDS011;26418;50.070;8.436;2022-12-07T04:16:48;18.55;;;8.93;;
40729;SDS011;26418;50.070;8.436;2022-12-07T04:19:14;17.23;;;9.30;;
40729;SDS011;26418;50.070;8.436;2022-12-07T04:21:41;19.80;;;9.75;;
40729;SDS011;26418;50.070;8.436;2022-12-07T04:24:06;17.80;;;9.00;;
40729;SDS011;26418;50.070;8.436;2022-12-07T04:26:32;18.92;;;9.77;;
40729;SDS011;26418;50.070;8.436;2022-12-07T04:28:58;18.73;;;8.57;;
40729;SDS011;26418;50.070;8.436;2022-12-07T04:31:24;21.33;;;10.07;;
40729;SDS011;26418;50.070;8.436;2022-12-07T04:33:49;16.15;;;9.05;;
40729;SDS011;26418;50.070;8.436;2022-12-07T04:36:15;19.30;;;9.55;;
40729;SDS011;26418;50.070;8.436;2022-12-07T04:38:41;16.63;;;9.45;;
40729;SDS011;26418;50.070;8.436;2022-12-07T04:41:07;17.17;;;8.50;;
40729;SDS011;26418;50.070;8.436;2022-12-07T04:43:33;18.27;;;8.80;;
40729;SDS011;26418;50.070;8.436;2022-12-07T04:45:59;20.88;;;9.98;;
40729;SDS011;26418;50.070;8.436;2022-12-07T04:48:25;17.55;;;8.77;;
40729;SDS011;26418;50.070;8.436;2022-12-07T04:50:51;20.17;;;8.82;;
40729;SDS011;26418;50.070;8.436;2022-12-07T04:53:16;17.48;;;9.20;;
40729;SDS011;26418;50.070;8.436;2022-12-07T04:55:42;17.75;;;8.43;;
40729;SDS011;26418;50.070;8.436;2022-12-07T04:58:08;21.17;;;9.02;;
40729;SDS011;26418;50.070;8.436;2022-12-07T05:00:34;19.25;;;9.45;;
40729;SDS011;26418;50.070;8.436;2022-12-07T05:02:59;17.55;;;9.68;;
40729;SDS011;26418;50.070;8.436;2022-12-07T05:05:25;22.02;;;9.45;;
40729;SDS011;26418;50.070;8.436;2022-12-07T05:07:50;21.20;;;9.75;;
40729;SDS011;26418;50.070;8.436;2022-12-07T05:10:16;14.63;;;8.73;;
40729;SDS011;26418;50.070;8.436;2022-12-07T05:12:41;18.35;;;8.85;;
40729;SDS011;26418;50.070;8.436;2022-12-07T05:15:07;19.40;;;9.48;;
40729;SDS011;26418;50.070;8.436;2022-12-07T05:17:33;17.70;;;9.00;;
40729;SDS011;26418;50.070;8.436;2022-12-07T05:19:59;20.00;;;9.25;;
40729;SDS011;26418;50.070;8.436;2022-12-07T05:22:24;19.50;;;9.75;;
40729;SDS011;26418;50.070;8.436;2022-12-07T05:24:53;16.33;;;9.80;;
40729;SDS011;26418;50.070;8.436;2022-12-07T05:27:19;20.70;;;9.90;;
40729;SDS011;26418;50.070;8.436;2022-12-07T05:29:45;19.73;;;10.50;;
40729;SDS011;26418;50.070;8.436;2022-12-07T05:32:11;20.80;;;10.82;;
40729;SDS011;26418;50.070;8.436;2022-12-07T05:34:37;18.23;;;9.55;;
40729;SDS011;26418;50.070;8.436;2022-12-07T05:37:02;18.98;;;9.85;;
40729;SDS011;26418;50.070;8.436;2022-12-07T05:39:28;20.45;;;10.93;;
40729;SDS011;26418;50.070;8.436;2022-12-07T05:41:53;19.50;;;10.10;;
40729;SDS011;26418;50.070;8.436;2022-12-07T05:44:37;22.65;;;10.73;;
40729;SDS011;26418;50.070;8.436;2022-12-07T05:47:04;22.48;;;10.57;;
40729;SDS011;26418;50.070;8.436;2022-12-07T05:49:29;20.88;;;10.88;;
40729;SDS011;26418;50.070;8.436;2022-12-07T05:51:55;17.83;;;9.43;;
40729;SDS011;26418;50.070;8.436;2022-12-07T05:54:21;20.63;;;10.48;;
40729;SDS011;26418;50.070;8.436;2022-12-07T05:56:47;23.17;;;12.60;;
40729;SDS011;26418;50.070;8.436;2022-12-07T05:59:12;20.75;;;10.85;;
40729;SDS011;26418;50.070;8.436;2022-12-07T06:01:48;21.05;;;10.98;;
40729;SDS011;26418;50.070;8.436;2022-12-07T06:04:18;23.08;;;10.63;;
40729;SDS011;26418;50.070;8.436;2022-12-07T06:06:44;21.88;;;11.02;;
40729;SDS011;26418;50.070;8.436;2022-12-07T06:09:10;20.70;;;10.48;;
40729;SDS011;26418;50.070;8.436;2022-12-07T06:11:36;18.95;;;10.10;;
40729;SDS011;26418;50.070;8.436;2022-12-07T06:14:19;22.83;;;10.85;;
40729;SDS011;26418;50.070;8.436;2022-12-07T06:16:45;15.20;;;7.18;;
40729;SDS011;26418;50.070;8.436;2022-12-07T06:19:11;20.55;;;8.90;;
40729;SDS011;26418;50.070;8.436;2022-12-07T06:21:36;19.23;;;10.00;;
40729;SDS011;26418;50.070;8.436;2022-12-07T06:24:02;23.00;;;12.25;;
40729;SDS011;26418;50.070;8.436;2022-12-07T06:26:28;22.75;;;11.57;;
40729;SDS011;26418;50.070;8.436;2022-12-07T06:28:54;14.30;;;7.43;;
40729;SDS011;26418;50.070;8.436;2022-12-07T06:31:19;20.45;;;9.90;;
40729;SDS011;26418;50.070;8.436;2022-12-07T06:33:45;19.80;;;11.70;;
40729;SDS011;26418;50.070;8.436;2022-12-07T06:36:11;24.23;;;13.80;;
40729;SDS011;26418;50.070;8.436;2022-12-07T06:38:37;18.80;;;10.10;;
40729;SDS011;26418;50.070;8.436;2022-12-07T06:41:03;21.77;;;11.85;;
40729;SDS011;26418;50.070;8.436;2022-12-07T06:43:28;21.65;;;11.45;;
40729;SDS011;26418;50.070;8.436;2022-12-07T06:45:54;23.50;;;11.98;;
40729;SDS011;26418;50.070;8.436;2022-12-07T06:48:20;19.95;;;11.98;;
40729;SDS011;26418;50.070;8.436;2022-12-07T06:50:46;22.85;;;12.18;;
40729;SDS011;26418;50.070;8.436;2022-12-07T06:53:12;22.70;;;11.73;;
40729;SDS011;26418;50.070;8.436;2022-12-07T06:55:38;22.63;;;11.68;;
40729;SDS011;26418;50.070;8.436;2022-12-07T06:58:04;27.73;;;13.40;;
40729;SDS011;26418;50.070;8.436;2022-12-07T07:00:30;23.02;;;12.38;;
40729;SDS011;26418;50.070;8.436;2022-12-07T07:02:56;24.80;;;12.40;;
40729;SDS011;26418;50.070;8.436;2022-12-07T07:05:22;24.17;;;13.20;;
40729;SDS011;26418;50.070;8.436;2022-12-07T07:07:50;26.25;;;12.80;;
40729;SDS011;26418;50.070;8.436;2022-12-07T07:10:16;24.65;;;13.43;;
40729;SDS011;26418;50.070;8.436;2022-12-07T07:12:41;21.88;;;12.50;;
40729;SDS011;26418;50.070;8.436;2022-12-07T07:15:08;23.27;;;12.48;;
40729;SDS011;26418;50.070;8.436;2022-12-07T07:17:34;21.50;;;11.98;;
40729;SDS011;26418;50.070;8.436;2022-12-07T07:20:00;25.83;;;12.45;;
40729;SDS011;26418;50.070;8.436;2022-12-07T07:22:25;19.02;;;10.80;;
40729;SDS011;26418;50.070;8.436;2022-12-07T07:24:51;21.23;;;11.13;;
40729;SDS011;26418;50.070;8.436;2022-12-07T07:27:16;23.20;;;11.20;;
40729;SDS011;26418;50.070;8.436;2022-12-07T07:29:42;24.92;;;11.13;;
40729;SDS011;26418;50.070;8.436;2022-12-07T07:32:08;23.55;;;10.95;;
40729;SDS011;26418;50.070;8.436;2022-12-07T07:34:33;23.55;;;11.88;;
40729;SDS011;26418;50.070;8.436;2022-12-07T07:36:59;21.35;;;11.20;;
40729;SDS011;26418;50.070;8.436;2022-12-07T07:39:25;22.08;;;11.23;;
40729;SDS011;26418;50.070;8.436;2022-12-07T07:41:50;26.63;;;12.27;;
40729;SDS011;26418;50.070;8.436;2022-12-07T07:44:16;21.77;;;11.88;;
40729;SDS011;26418;50.070;8.436;2022-12-07T07:46:41;21.98;;;11.25;;
40729;SDS011;26418;50.070;8.436;2022-12-07T07:49:08;18.60;;;10.60;;
40729;SDS011;26418;50.070;8.436;2022-12-07T07:51:35;21.42;;;9.63;;
40729;SDS011;26418;50.070;8.436;2022-12-07T07:54:01;21.00;;;11.07;;
40729;SDS011;26418;50.070;8.436;2022-12-07T07:56:27;19.38;;;10.20;;
40729;SDS011;26418;50.070;8.436;2022-12-07T07:58:52;19.75;;;11.80;;
40729;SDS011;26418;50.070;8.436;2022-12-07T08:01:19;27.38;;;12.77;;
40729;SDS011;26418;50.070;8.436;2022-12-07T08:03:45;65.57;;;31.02;;
40729;SDS011;26418;50.070;8.436;2022-12-07T08:06:11;54.28;;;27.02;;
40729;SDS011;26418;50.070;8.436;2022-12-07T08:08:37;48.65;;;23.65;;
40729;SDS011;26418;50.070;8.436;2022-12-07T08:11:06;64.25;;;31.10;;
40729;SDS011;26418;50.070;8.436;2022-12-07T08:13:34;42.85;;;21.35;;
40729;SDS011;26418;50.070;8.436;2022-12-07T08:16:03;29.25;;;14.45;;
40729;SDS011;26418;50.070;8.436;2022-12-07T08:18:37;33.28;;;17.15;;
40729;SDS011;26418;50.070;8.436;2022-12-07T08:21:04;29.40;;;14.02;;
40729;SDS011;26418;50.070;8.436;2022-12-07T08:23:31;26.77;;;12.75;;
40729;SDS011;26418;50.070;8.436;2022-12-07T08:26:00;24.10;;;12.88;;
40729;SDS011;26418;50.070;8.436;2022-12-07T08:28:28;19.85;;;11.82;;
40729;SDS011;26418;50.070;8.436;2022-12-07T08:31:01;21.17;;;10.75;;
40729;SDS011;26418;50.070;8.436;2022-12-07T08:33:28;18.30;;;10.18;;
40729;SDS011;26418;50.070;8.436;2022-12-07T08:35:54;13.35;;;8.13;;
40729;SDS011;26418;50.070;8.436;2022-12-07T08:38:20;15.18;;;7.97;;
40729;SDS011;26418;50.070;8.436;2022-12-07T08:40:53;15.27;;;8.95;;
40729;SDS011;26418;50.070;8.436;2022-12-07T08:43:22;14.98;;;8.50;;
40729;SDS011;26418;50.070;8.436;2022-12-07T08:45:48;21.67;;;9.68;;
40729;SDS011;26418;50.070;8.436;2022-12-07T08:48:21;16.55;;;9.27;;
40729;SDS011;26418;50.070;8.436;2022-12-07T08:50:49;19.30;;;9.75;;
40729;SDS011;26418;50.070;8.436;2022-12-07T08:53:16;15.15;;;8.93;;
40729;SDS011;26418;50.070;8.436;2022-12-07T08:55:42;18.30;;;9.68;;
40729;SDS011;26418;50.070;8.436;2022-12-07T08:58:09;22.73;;;9.75;;
40729;SDS011;26418;50.070;8.436;2022-12-07T09:00:35;20.05;;;9.18;;
40729;SDS011;26418;50.070;8.436;2022-12-07T09:03:01;17.52;;;8.73;;
40729;SDS011;26418;50.070;8.436;2022-12-07T09:05:26;18.90;;;9.18;;
40729;SDS011;26418;50.070;8.436;2022-12-07T09:07:54;15.32;;;9.20;;
40729;SDS011;26418;50.070;8.436;2022-12-07T09:10:22;16.92;;;9.30;;
40729;SDS011;26418;50.070;8.436;2022-12-07T09:12:48;15.20;;;8.75;;
40729;SDS011;26418;50.070;8.436;2022-12-07T09:15:14;17.90;;;9.13;;
40729;SDS011;26418;50.070;8.436;2022-12-07T09:17:42;15.80;;;8.43;;
40729;SDS011;26418;50.070;8.436;2022-12-07T09:20:08;15.70;;;8.35;;
40729;SDS011;26418;50.070;8.436;2022-12-07T09:22:35;12.30;;;7.57;;
40729;SDS011;26418;50.070;8.436;2022-12-07T09:25:01;21.48;;;9.13;;
40729;SDS011;26418;50.070;8.436;2022-12-07T09:27:27;13.00;;;7.60;;
40729;SDS011;26418;50.070;8.436;2022-12-07T09:29:52;14.10;;;8.10;;
40729;SDS011;26418;50.070;8.436;2022-12-07T09:32:18;16.23;;;7.20;;
40729;SDS011;26418;50.070;8.436;2022-12-07T09:34:44;15.10;;;6.88;;
40729;SDS011;26418;50.070;8.436;2022-12-07T09:37:09;9.63;;;6.38;;
40729;SDS011;26418;50.070;8.436;2022-12-07T09:39:37;9.98;;;5.82;;
40729;SDS011;26418;50.070;8.436;2022-12-07T09:42:03;9.27;;;5.93;;
40729;SDS011;26418;50.070;8.436;2022-12-07T09:44:32;10.38;;;6.13;;
40729;SDS011;26418;50.070;8.436;2022-12-07T09:46:58;9.10;;;5.13;;
40729;SDS011;26418;50.070;8.436;2022-12-07T09:49:24;11.02;;;6.07;;
40729;SDS011;26418;50.070;8.436;2022-12-07T09:54:39;10.75;;;6.43;;
40729;SDS011;26418;50.070;8.436;2022-12-07T09:57:09;9.50;;;5.80;;
40729;SDS011;26418;50.070;8.436;2022-12-07T09:59:37;10.88;;;5.40;;
40729;SDS011;26418;50.070;8.436;2022-12-07T10:04:57;8.10;;;5.43;;
40729;SDS011;26418;50.070;8.436;2022-12-07T10:07:23;9.75;;;5.50;;
40729;SDS011;26418;50.070;8.436;2022-12-07T10:09:49;8.85;;;5.53;;
40729;SDS011;26418;50.070;8.436;2022-12-07T10:12:15;8.82;;;3.70;;
40729;SDS011;26418;50.070;8.436;2022-12-07T10:14:52;6.20;;;3.97;;
40729;SDS011;26418;50.070;8.436;2022-12-07T10:17:28;6.68;;;3.47;;
40729;SDS011;26418;50.070;8.436;2022-12-07T10:25:25;5.63;;;3.50;;
40729;SDS011;26418;50.070;8.436;2022-12-07T10:28:01;8.93;;;3.90;;
40729;SDS011;26418;50.070;8.436;2022-12-07T10:30:33;8.63;;;3.80;;
40729;SDS011;26418;50.070;8.436;2022-12-07T10:33:28;8.60;;;3.78;;
40729;SDS011;26418;50.070;8.436;2022-12-07T10:36:19;7.20;;;3.65;;
40729;SDS011;26418;50.070;8.436;2022-12-07T10:38:46;5.72;;;3.13;;
40729;SDS011;26418;50.070;8.436;2022-12-07T10:41:16;7.85;;;3.85;;
40729;SDS011;26418;50.070;8.436;2022-12-07T10:43:48;5.97;;;3.60;;
40729;SDS011;26418;50.070;8.436;2022-12-07T10:46:26;9.75;;;4.22;;
40729;SDS011;26418;50.070;8.436;2022-12-07T10:59:53;6.72;;;4.00;;
40729;SDS011;26418;50.070;8.436;2022-12-07T11:02:36;8.07;;;3.15;;
40729;SDS011;26418;50.070;8.436;2022-12-07T11:05:30;7.13;;;3.22;;
40729;SDS011;26418;50.070;8.436;2022-12-07T11:11:09;5.20;;;2.78;;
40729;SDS011;26418;50.070;8.436;2022-12-07T11:13:48;6.40;;;2.80;;
40729;SDS011;26418;50.070;8.436;2022-12-07T11:21:58;4.25;;;2.30;;
40729;SDS011;26418;50.070;8.436;2022-12-07T11:27:37;2.95;;;1.83;;
40729;SDS011;26418;50.070;8.436;2022-12-07T11:30:20;4.30;;;1.90;;
40729;SDS011;26418;50.070;8.436;2022-12-07T11:35:54;3.90;;;1.83;;
40729;SDS011;26418;50.070;8.436;2022-12-07T11:41:43;3.75;;;1.80;;
40729;SDS011;26418;50.070;8.436;2022-12-07T11:54:57;5.05;;;1.73;;
40729;SDS011;26418;50.070;8.436;2022-12-07T11:57:37;4.55;;;1.65;;
40729;SDS011;26418;50.070;8.436;2022-12-07T12:00:14;5.78;;;1.80;;
40729;SDS011;26418;50.070;8.436;2022-12-07T12:05:29;3.45;;;1.98;;
40729;SDS011;26418;50.070;8.436;2022-12-07T12:08:29;2.60;;;1.67;;
40729;SDS011;26418;50.070;8.436;2022-12-07T12:13:51;3.13;;;1.52;;
40729;SDS011;26418;50.070;8.436;2022-12-07T12:19:32;5.15;;;1.90;;
40729;SDS011;26418;50.070;8.436;2022-12-07T12:22:29;6.25;;;1.92;;
40729;SDS011;26418;50.070;8.436;2022-12-07T12:25:05;6.43;;;2.10;;
40729;SDS011;26418;50.070;8.436;2022-12-07T12:27:39;6.22;;;1.65;;
40729;SDS011;26418;50.070;8.436;2022-12-07T12:30:29;3.42;;;1.80;;
40729;SDS011;26418;50.070;8.436;2022-12-07T12:38:49;6.50;;;1.95;;
40729;SDS011;26418;50.070;8.436;2022-12-07T12:50:22;3.83;;;2.10;;
40729;SDS011;26418;50.070;8.436;2022-12-07T12:55:17;6.05;;;1.88;;
40729;SDS011;26418;50.070;8.436;2022-12-07T12:57:46;2.70;;;1.50;;
40729;SDS011;26418;50.070;8.436;2022-12-07T13:00:38;3.85;;;1.70;;
40729;SDS011;26418;50.070;8.436;2022-12-07T13:03:04;4.20;;;2.00;;
40729;SDS011;26418;50.070;8.436;2022-12-07T13:05:30;3.15;;;1.73;;
40729;SDS011;26418;50.070;8.436;2022-12-07T13:08:00;4.65;;;1.85;;
40729;SDS011;26418;50.070;8.436;2022-12-07T13:26:04;3.88;;;1.33;;
40729;SDS011;26418;50.070;8.436;2022-12-07T13:28:37;6.67;;;1.80;;
40729;SDS011;26418;50.070;8.436;2022-12-07T13:31:11;5.28;;;2.00;;
40729;SDS011;26418;50.070;8.436;2022-12-07T13:33:49;3.65;;;1.98;;
40729;SDS011;26418;50.070;8.436;2022-12-07T13:36:19;6.43;;;2.30;;
40729;SDS011;26418;50.070;8.436;2022-12-07T13:38:52;7.40;;;2.00;;
40729;SDS011;26418;50.070;8.436;2022-12-07T13:41:21;5.75;;;1.92;;
40729;SDS011;26418;50.070;8.436;2022-12-07T13:43:49;7.68;;;1.92;;
40729;SDS011;26418;50.070;8.436;2022-12-07T13:46:14;11.02;;;2.53;;
40729;SDS011;26418;50.070;8.436;2022-12-07T13:48:46;5.88;;;1.90;;
40729;SDS011;26418;50.070;8.436;2022-12-07T13:51:20;3.17;;;2.08;;
40729;SDS011;26418;50.070;8.436;2022-12-07T13:53:48;8.05;;;2.70;;
40729;SDS011;26418;50.070;8.436;2022-12-07T13:56:16;4.38;;;2.30;;
40729;SDS011;26418;50.070;8.436;2022-12-07T13:58:41;8.15;;;2.65;;
40729;SDS011;26418;50.070;8.436;2022-12-07T14:01:07;4.13;;;2.00;;
40729;SDS011;26418;50.070;8.436;2022-12-07T14:03:33;9.82;;;2.05;;
40729;SDS011;26418;50.070;8.436;2022-12-07T14:08:29;7.22;;;2.03;;
40729;SDS011;26418;50.070;8.436;2022-12-07T14:10:55;5.53;;;1.90;;
40729;SDS011;26418;50.070;8.436;2022-12-07T14:16:05;3.17;;;1.08;;
40729;SDS011;26418;50.070;8.436;2022-12-07T14:18:47;1.75;;;1.00;;
40729;SDS011;26418;50.070;8.436;2022-12-07T14:23:38;2.67;;;0.80;;
40729;SDS011;26418;50.070;8.436;2022-12-07T14:26:07;2.40;;;1.05;;
40729;SDS011;26418;50.070;8.436;2022-12-07T14:28:37;3.28;;;0.95;;
40729;SDS011;26418;50.070;8.436;2022-12-07T14:31:03;2.13;;;1.00;;
40729;SDS011;26418;50.070;8.436;2022-12-07T14:33:35;3.28;;;1.17;;
40729;SDS011;26418;50.070;8.436;2022-12-07T14:36:01;4.03;;;1.00;;
40729;SDS011;26418;50.070;8.436;2022-12-07T14:38:26;5.95;;;1.27;;
40729;SDS011;26418;50.070;8.436;2022-12-07T14:40:52;2.30;;;0.90;;
40729;SDS011;26418;50.070;8.436;2022-12-07T14:43:18;1.15;;;0.77;;
40729;SDS011;26418;50.070;8.436;2022-12-07T14:45:45;5.13;;;1.00;;
40729;SDS011;26418;50.070;8.436;2022-12-07T14:48:11;2.28;;;0.98;;
40729;SDS011;26418;50.070;8.436;2022-12-07T14:50:42;3.08;;;0.70;;
40729;SDS011;26418;50.070;8.436;2022-12-07T14:53:14;4.55;;;0.93;;
40729;SDS011;26418;50.070;8.436;2022-12-07T14:55:42;6.88;;;1.25;;
40729;SDS011;26418;50.070;8.436;2022-12-07T14:58:15;6.93;;;1.25;;
40729;SDS011;26418;50.070;8.436;2022-12-07T15:00:42;3.33;;;1.10;;
40729;SDS011;26418;50.070;8.436;2022-12-07T15:06:18;5.65;;;1.83;;
40729;SDS011;26418;50.070;8.436;2022-12-07T15:08:44;5.90;;;1.70;;
40729;SDS011;26418;50.070;8.436;2022-12-07T15:11:13;4.20;;;2.00;;
40729;SDS011;26418;50.070;8.436;2022-12-07T15:13:40;5.38;;;1.65;;
40729;SDS011;26418;50.070;8.436;2022-12-07T15:16:24;3.60;;;1.33;;
40729;SDS011;26418;50.070;8.436;2022-12-07T15:18:50;3.72;;;1.48;;
40729;SDS011;26418;50.070;8.436;2022-12-07T15:21:16;2.85;;;1.23;;
40729;SDS011;26418;50.070;8.436;2022-12-07T15:23:42;8.77;;;1.25;;
40729;SDS011;26418;50.070;8.436;2022-12-07T15:26:09;2.00;;;1.05;;
40729;SDS011;26418;50.070;8.436;2022-12-07T15:28:38;3.63;;;1.30;;
40729;SDS011;26418;50.070;8.436;2022-12-07T15:31:10;2.78;;;1.40;;
40729;SDS011;26418;50.070;8.436;2022-12-07T15:33:40;5.70;;;2.47;;
40729;SDS011;26418;50.070;8.436;2022-12-07T15:36:08;3.05;;;1.60;;
40729;SDS011;26418;50.070;8.436;2022-12-07T15:38:40;3.05;;;1.30;;
40729;SDS011;26418;50.070;8.436;2022-12-07T15:41:06;2.78;;;1.38;;
40729;SDS011;26418;50.070;8.436;2022-12-07T15:43:31;6.22;;;2.30;;
40729;SDS011;26418;50.070;8.436;2022-12-07T15:46:15;3.67;;;1.85;;
40729;SDS011;26418;50.070;8.436;2022-12-07T15:48:41;8.18;;;2.05;;
40729;SDS011;26418;50.070;8.436;2022-12-07T15:51:07;7.05;;;2.13;;
40729;SDS011;26418;50.070;8.436;2022-12-07T15:53:36;7.57;;;2.03;;
40729;SDS011;26418;50.070;8.436;2022-12-07T15:56:05;5.75;;;1.90;;
40729;SDS011;26418;50.070;8.436;2022-12-07T15:58:32;8.88;;;2.05;;
40729;SDS011;26418;50.070;8.436;2022-12-07T16:01:01;3.80;;;1.63;;
40729;SDS011;26418;50.070;8.436;2022-12-07T16:04:04;7.55;;;2.00;;
40729;SDS011;26418;50.070;8.436;2022-12-07T16:06:55;4.35;;;1.30;;
40729;SDS011;26418;50.070;8.436;2022-12-07T16:09:21;3.50;;;1.67;;
40729;SDS011;26418;50.070;8.436;2022-12-07T16:11:47;2.50;;;1.00;;
40729;SDS011;26418;50.070;8.436;2022-12-07T16:14:13;3.20;;;1.83;;
40729;SDS011;26418;50.070;8.436;2022-12-07T16:16:38;6.43;;;1.70;;
40729;SDS011;26418;50.070;8.436;2022-12-07T16:19:05;3.38;;;1.80;;
40729;SDS011;26418;50.070;8.436;2022-12-07T16:21:33;3.67;;;1.70;;
40729;SDS011;26418;50.070;8.436;2022-12-07T16:23:59;7.30;;;2.28;;
40729;SDS011;26418;50.070;8.436;2022-12-07T16:26:25;5.32;;;2.33;;
40729;SDS011;26418;50.070;8.436;2022-12-07T16:28:51;6.57;;;2.13;;
40729;SDS011;26418;50.070;8.436;2022-12-07T16:31:18;4.20;;;2.20;;
40729;SDS011;26418;50.070;8.436;2022-12-07T16:33:46;8.77;;;2.17;;
40729;SDS011;26418;50.070;8.436;2022-12-07T16:38:43;6.63;;;2.10;;
40729;SDS011;26418;50.070;8.436;2022-12-07T16:41:09;5.78;;;1.92;;
40729;SDS011;26418;50.070;8.436;2022-12-07T16:43:35;5.68;;;2.13;;
40729;SDS011;26418;50.070;8.436;2022-12-07T16:46:01;9.35;;;2.80;;
40729;SDS011;26418;50.070;8.436;2022-12-07T16:48:28;7.95;;;2.63;;
40729;SDS011;26418;50.070;8.436;2022-12-07T16:50:54;10.43;;;3.15;;
40729;SDS011;26418;50.070;8.436;2022-12-07T17:24:24;6.10;;;2.45;;
40729;SDS011;26418;50.070;8.436;2022-12-07T17:26:50;7.70;;;2.50;;
40729;SDS011;26418;50.070;8.436;2022-12-07T17:29:16;9.82;;;2.70;;
40729;SDS011;26418;50.070;8.436;2022-12-07T17:31:43;5.90;;;2.08;;
40729;SDS011;26418;50.070;8.436;2022-12-07T17:34:10;6.90;;;2.88;;